sensor_id;sensor_type;location;lat;lon;timestamp;P1;durP1;ratioP1;P2;durP2;ratioP2
19255;SDS011;9762;52.490;13.410;2023-04-24T00:00:45;4.17;;;3.87;;
19255;SDS011;9762;52.490;13.410;2023-04-24T00:03:12;4.20;;;3.90;;
19255;SDS011;9762;52.490;13.410;2023-04-24T00:05:37;4.20;;;4.00;;
19255;SDS011;9762;52.490;13.410;2023-04-24T00:08:05;4.20;;;4.00;;
19255;SDS011;9762;52.490;13.410;2023-04-24T00:10:31;3.87;;;3.60;;
19255;SDS011;9762;52.490;13.410;2023-04-24T00:12:56;3.90;;;3.70;;
19255;SDS011;9762;52.490;13.410;2023-04-24T00:15:22;4.73;;;3.70;;
19255;SDS011;9762;52.490;13.410;2023-04-24T00:17:48;4.30;;;4.00;;
19255;SDS011;9762;52.490;13.410;2023-04-24T00:20:14;4.13;;;3.77;;
19255;SDS011;9762;52.490;13.410;2023-04-24T00:22:40;4.10;;;3.67;;
19255;SDS011;9762;52.490;13.410;2023-04-24T00:25:06;4.10;;;3.90;;
19255;SDS011;9762;52.490;13.410;2023-04-24T00:27:32;3.87;;;3.73;;
19255;SDS011;9762;52.490;13.410;2023-04-24T00:29:57;4.37;;;4.07;;
19255;SDS011;9762;52.490;13.410;2023-04-24T00:32:23;3.87;;;3.60;;
19255;SDS011;9762;52.490;13.410;2023-04-24T00:34:49;4.00;;;3.80;;
19255;SDS011;9762;52.490;13.410;2023-04-24T00:37:14;3.73;;;3.43;;
19255;SDS011;9762;52.490;13.410;2023-04-24T00:39:40;4.00;;;3.80;;
19255;SDS011;9762;52.490;13.410;2023-04-24T00:42:06;4.10;;;3.90;;
19255;SDS011;9762;52.490;13.410;2023-04-24T00:44:34;3.90;;;3.60;;
19255;SDS011;9762;52.490;13.410;2023-04-24T00:47:01;4.17;;;3.90;;
19255;SDS011;9762;52.490;13.410;2023-04-24T00:49:26;3.33;;;3.23;;
19255;SDS011;9762;52.490;13.410;2023-04-24T00:51:52;4.33;;;4.03;;
19255;SDS011;9762;52.490;13.410;2023-04-24T00:54:19;3.93;;;3.73;;
19255;SDS011;9762;52.490;13.410;2023-04-24T00:56:44;3.90;;;3.70;;
19255;SDS011;9762;52.490;13.410;2023-04-24T00:59:11;4.00;;;3.70;;
19255;SDS011;9762;52.490;13.410;2023-04-24T01:01:39;3.27;;;3.10;;
19255;SDS011;9762;52.490;13.410;2023-04-24T01:04:07;3.90;;;3.70;;
19255;SDS011;9762;52.490;13.410;2023-04-24T01:06:35;4.20;;;3.90;;
19255;SDS011;9762;52.490;13.410;2023-04-24T01:09:03;3.70;;;3.50;;
19255;SDS011;9762;52.490;13.410;2023-04-24T01:11:29;3.63;;;3.43;;
19255;SDS011;9762;52.490;13.410;2023-04-24T01:13:56;4.23;;;3.93;;
19255;SDS011;9762;52.490;13.410;2023-04-24T01:16:21;3.70;;;3.47;;
19255;SDS011;9762;52.490;13.410;2023-04-24T01:18:47;4.00;;;3.80;;
19255;SDS011;9762;52.490;13.410;2023-04-24T01:21:13;4.50;;;4.10;;
19255;SDS011;9762;52.490;13.410;2023-04-24T01:23:41;3.97;;;3.67;;
19255;SDS011;9762;52.490;13.410;2023-04-24T01:26:10;4.43;;;4.03;;
19255;SDS011;9762;52.490;13.410;2023-04-24T01:28:37;4.17;;;3.87;;
19255;SDS011;9762;52.490;13.410;2023-04-24T01:31:02;4.27;;;4.03;;
19255;SDS011;9762;52.490;13.410;2023-04-24T01:33:28;4.77;;;3.93;;
19255;SDS011;9762;52.490;13.410;2023-04-24T01:35:54;5.03;;;3.50;;
19255;SDS011;9762;52.490;13.410;2023-04-24T01:38:20;4.37;;;4.17;;
19255;SDS011;9762;52.490;13.410;2023-04-24T01:40:46;3.90;;;3.60;;
19255;SDS011;9762;52.490;13.410;2023-04-24T01:43:12;3.67;;;3.47;;
19255;SDS011;9762;52.490;13.410;2023-04-24T01:45:38;4.07;;;3.87;;
19255;SDS011;9762;52.490;13.410;2023-04-24T01:48:03;4.03;;;3.83;;
19255;SDS011;9762;52.490;13.410;2023-04-24T01:50:30;3.83;;;3.63;;
19255;SDS011;9762;52.490;13.410;2023-04-24T01:52:55;4.00;;;3.70;;
19255;SDS011;9762;52.490;13.410;2023-04-24T01:55:21;4.37;;;4.13;;
19255;SDS011;9762;52.490;13.410;2023-04-24T01:57:47;3.90;;;3.77;;
19255;SDS011;9762;52.490;13.410;2023-04-24T02:00:12;3.90;;;3.80;;
19255;SDS011;9762;52.490;13.410;2023-04-24T02:02:39;4.00;;;3.80;;
19255;SDS011;9762;52.490;13.410;2023-04-24T02:05:06;4.33;;;3.93;;
19255;SDS011;9762;52.490;13.410;2023-04-24T02:07:32;3.77;;;3.60;;
19255;SDS011;9762;52.490;13.410;2023-04-24T02:09:58;4.57;;;4.37;;
19255;SDS011;9762;52.490;13.410;2023-04-24T02:12:24;4.40;;;4.20;;
19255;SDS011;9762;52.490;13.410;2023-04-24T02:14:49;4.23;;;4.03;;
19255;SDS011;9762;52.490;13.410;2023-04-24T02:17:15;3.90;;;3.70;;
19255;SDS011;9762;52.490;13.410;2023-04-24T02:19:41;4.33;;;4.10;;
19255;SDS011;9762;52.490;13.410;2023-04-24T02:22:07;4.10;;;3.70;;
19255;SDS011;9762;52.490;13.410;2023-04-24T02:24:33;3.87;;;3.67;;
19255;SDS011;9762;52.490;13.410;2023-04-24T02:26:58;4.30;;;4.10;;
19255;SDS011;9762;52.490;13.410;2023-04-24T02:29:25;3.73;;;3.53;;
19255;SDS011;9762;52.490;13.410;2023-04-24T02:31:50;4.17;;;3.97;;
19255;SDS011;9762;52.490;13.410;2023-04-24T02:34:16;4.20;;;3.90;;
19255;SDS011;9762;52.490;13.410;2023-04-24T02:36:42;4.73;;;4.40;;
19255;SDS011;9762;52.490;13.410;2023-04-24T02:39:07;4.63;;;4.23;;
19255;SDS011;9762;52.490;13.410;2023-04-24T02:41:33;4.87;;;4.53;;
19255;SDS011;9762;52.490;13.410;2023-04-24T02:43:58;8.17;;;4.80;;
19255;SDS011;9762;52.490;13.410;2023-04-24T02:46:24;5.20;;;4.70;;
19255;SDS011;9762;52.490;13.410;2023-04-24T02:48:50;4.23;;;3.60;;
19255;SDS011;9762;52.490;13.410;2023-04-24T02:51:16;3.90;;;3.70;;
19255;SDS011;9762;52.490;13.410;2023-04-24T02:53:42;4.27;;;4.03;;
19255;SDS011;9762;52.490;13.410;2023-04-24T02:56:07;4.40;;;4.00;;
19255;SDS011;9762;52.490;13.410;2023-04-24T02:58:33;4.80;;;4.00;;
19255;SDS011;9762;52.490;13.410;2023-04-24T03:00:59;4.40;;;4.10;;
19255;SDS011;9762;52.490;13.410;2023-04-24T03:03:25;4.30;;;4.00;;
19255;SDS011;9762;52.490;13.410;2023-04-24T03:05:51;5.03;;;4.53;;
19255;SDS011;9762;52.490;13.410;2023-04-24T03:08:17;4.63;;;4.43;;
19255;SDS011;9762;52.490;13.410;2023-04-24T03:10:42;4.70;;;4.40;;
19255;SDS011;9762;52.490;13.410;2023-04-24T03:13:08;4.90;;;4.60;;
19255;SDS011;9762;52.490;13.410;2023-04-24T03:15:34;5.00;;;4.60;;
19255;SDS011;9762;52.490;13.410;2023-04-24T03:17:59;4.37;;;4.17;;
19255;SDS011;9762;52.490;13.410;2023-04-24T03:20:25;5.00;;;4.70;;
19255;SDS011;9762;52.490;13.410;2023-04-24T03:22:51;4.80;;;4.43;;
19255;SDS011;9762;52.490;13.410;2023-04-24T03:25:17;5.20;;;4.90;;
19255;SDS011;9762;52.490;13.410;2023-04-24T03:27:42;4.70;;;4.40;;
19255;SDS011;9762;52.490;13.410;2023-04-24T03:30:08;4.70;;;4.30;;
19255;SDS011;9762;52.490;13.410;2023-04-24T03:32:34;4.37;;;4.07;;
19255;SDS011;9762;52.490;13.410;2023-04-24T03:35:00;4.73;;;4.33;;
19255;SDS011;9762;52.490;13.410;2023-04-24T03:37:25;4.33;;;4.13;;
19255;SDS011;9762;52.490;13.410;2023-04-24T03:39:51;4.87;;;4.63;;
19255;SDS011;9762;52.490;13.410;2023-04-24T03:42:17;4.53;;;4.23;;
19255;SDS011;9762;52.490;13.410;2023-04-24T03:44:42;4.53;;;4.33;;
19255;SDS011;9762;52.490;13.410;2023-04-24T03:47:08;4.63;;;4.33;;
19255;SDS011;9762;52.490;13.410;2023-04-24T03:49:34;4.73;;;4.43;;
19255;SDS011;9762;52.490;13.410;2023-04-24T03:52:00;4.87;;;4.57;;
19255;SDS011;9762;52.490;13.410;2023-04-24T03:54:26;4.53;;;4.33;;
19255;SDS011;9762;52.490;13.410;2023-04-24T03:56:51;5.27;;;4.87;;
19255;SDS011;9762;52.490;13.410;2023-04-24T03:59:17;5.03;;;4.73;;
19255;SDS011;9762;52.490;13.410;2023-04-24T04:01:43;5.40;;;5.00;;
19255;SDS011;9762;52.490;13.410;2023-04-24T04:04:08;4.73;;;4.50;;
19255;SDS011;9762;52.490;13.410;2023-04-24T04:06:34;4.90;;;4.60;;
19255;SDS011;9762;52.490;13.410;2023-04-24T04:09:01;4.90;;;4.60;;
19255;SDS011;9762;52.490;13.410;2023-04-24T04:11:27;4.73;;;4.53;;
19255;SDS011;9762;52.490;13.410;2023-04-24T04:13:52;4.83;;;4.53;;
19255;SDS011;9762;52.490;13.410;2023-04-24T04:16:18;4.67;;;4.43;;
19255;SDS011;9762;52.490;13.410;2023-04-24T04:18:43;5.07;;;4.57;;
19255;SDS011;9762;52.490;13.410;2023-04-24T04:21:10;5.33;;;4.93;;
19255;SDS011;9762;52.490;13.410;2023-04-24T04:23:36;5.70;;;5.27;;
19255;SDS011;9762;52.490;13.410;2023-04-24T04:26:02;5.40;;;5.00;;
19255;SDS011;9762;52.490;13.410;2023-04-24T04:28:28;5.07;;;4.77;;
19255;SDS011;9762;52.490;13.410;2023-04-24T04:30:55;5.70;;;5.23;;
19255;SDS011;9762;52.490;13.410;2023-04-24T04:33:22;5.67;;;5.07;;
19255;SDS011;9762;52.490;13.410;2023-04-24T04:35:48;5.13;;;4.73;;
19255;SDS011;9762;52.490;13.410;2023-04-24T04:38:15;4.50;;;4.20;;
19255;SDS011;9762;52.490;13.410;2023-04-24T04:40:42;5.33;;;4.83;;
19255;SDS011;9762;52.490;13.410;2023-04-24T04:43:07;5.20;;;4.80;;
19255;SDS011;9762;52.490;13.410;2023-04-24T04:45:33;6.10;;;5.10;;
19255;SDS011;9762;52.490;13.410;2023-04-24T04:47:59;4.67;;;4.43;;
19255;SDS011;9762;52.490;13.410;2023-04-24T04:50:27;5.17;;;4.87;;
19255;SDS011;9762;52.490;13.410;2023-04-24T04:52:52;5.20;;;4.80;;
19255;SDS011;9762;52.490;13.410;2023-04-24T04:55:18;5.57;;;4.53;;
19255;SDS011;9762;52.490;13.410;2023-04-24T04:57:46;4.83;;;4.53;;
19255;SDS011;9762;52.490;13.410;2023-04-24T05:00:12;5.40;;;4.97;;
19255;SDS011;9762;52.490;13.410;2023-04-24T05:02:38;5.43;;;4.83;;
19255;SDS011;9762;52.490;13.410;2023-04-24T05:05:04;4.57;;;4.27;;
19255;SDS011;9762;52.490;13.410;2023-04-24T05:07:31;4.57;;;4.27;;
19255;SDS011;9762;52.490;13.410;2023-04-24T05:09:57;4.63;;;4.23;;
19255;SDS011;9762;52.490;13.410;2023-04-24T05:12:22;4.70;;;4.40;;
19255;SDS011;9762;52.490;13.410;2023-04-24T05:14:48;4.20;;;4.00;;
19255;SDS011;9762;52.490;13.410;2023-04-24T05:17:13;4.80;;;4.43;;
19255;SDS011;9762;52.490;13.410;2023-04-24T05:19:40;4.10;;;3.80;;
19255;SDS011;9762;52.490;13.410;2023-04-24T05:22:05;4.37;;;4.00;;
19255;SDS011;9762;52.490;13.410;2023-04-24T05:24:34;5.90;;;4.13;;
19255;SDS011;9762;52.490;13.410;2023-04-24T05:27:01;3.90;;;3.60;;
19255;SDS011;9762;52.490;13.410;2023-04-24T05:29:27;5.47;;;3.33;;
19255;SDS011;9762;52.490;13.410;2023-04-24T05:31:55;3.70;;;3.50;;
19255;SDS011;9762;52.490;13.410;2023-04-24T05:34:21;3.93;;;3.47;;
19255;SDS011;9762;52.490;13.410;2023-04-24T05:36:47;3.80;;;3.50;;
19255;SDS011;9762;52.490;13.410;2023-04-24T05:39:13;3.00;;;2.90;;
19255;SDS011;9762;52.490;13.410;2023-04-24T05:41:40;2.70;;;2.60;;
19255;SDS011;9762;52.490;13.410;2023-04-24T05:44:05;5.10;;;3.10;;
19255;SDS011;9762;52.490;13.410;2023-04-24T05:46:31;2.80;;;2.60;;
19255;SDS011;9762;52.490;13.410;2023-04-24T05:48:57;2.60;;;2.50;;
19255;SDS011;9762;52.490;13.410;2023-04-24T05:51:23;2.83;;;2.43;;
19255;SDS011;9762;52.490;13.410;2023-04-24T05:53:48;2.63;;;2.43;;
19255;SDS011;9762;52.490;13.410;2023-04-24T05:56:14;2.17;;;2.07;;
19255;SDS011;9762;52.490;13.410;2023-04-24T05:58:40;2.80;;;2.60;;
19255;SDS011;9762;52.490;13.410;2023-04-24T06:01:06;2.57;;;2.37;;
19255;SDS011;9762;52.490;13.410;2023-04-24T06:03:31;1.73;;;1.73;;
19255;SDS011;9762;52.490;13.410;2023-04-24T06:05:57;2.17;;;1.57;;
19255;SDS011;9762;52.490;13.410;2023-04-24T06:08:23;1.90;;;1.60;;
19255;SDS011;9762;52.490;13.410;2023-04-24T06:10:49;2.60;;;2.10;;
19255;SDS011;9762;52.490;13.410;2023-04-24T06:13:14;4.50;;;1.90;;
19255;SDS011;9762;52.490;13.410;2023-04-24T06:15:40;2.00;;;1.90;;
19255;SDS011;9762;52.490;13.410;2023-04-24T06:18:06;3.17;;;1.70;;
19255;SDS011;9762;52.490;13.410;2023-04-24T06:20:32;1.67;;;1.57;;
19255;SDS011;9762;52.490;13.410;2023-04-24T06:22:58;4.63;;;2.00;;
19255;SDS011;9762;52.490;13.410;2023-04-24T06:25:27;1.80;;;1.70;;
19255;SDS011;9762;52.490;13.410;2023-04-24T06:27:52;1.90;;;1.80;;
19255;SDS011;9762;52.490;13.410;2023-04-24T06:30:19;2.00;;;1.77;;
19255;SDS011;9762;52.490;13.410;2023-04-24T06:32:45;1.37;;;1.37;;
19255;SDS011;9762;52.490;13.410;2023-04-24T06:35:10;1.80;;;1.60;;
19255;SDS011;9762;52.490;13.410;2023-04-24T06:37:37;1.87;;;1.83;;
19255;SDS011;9762;52.490;13.410;2023-04-24T06:40:07;1.70;;;1.70;;
19255;SDS011;9762;52.490;13.410;2023-04-24T06:42:33;1.90;;;1.80;;
19255;SDS011;9762;52.490;13.410;2023-04-24T06:45:00;6.10;;;1.67;;
19255;SDS011;9762;52.490;13.410;2023-04-24T06:47:26;1.77;;;1.67;;
19255;SDS011;9762;52.490;13.410;2023-04-24T06:49:51;1.73;;;1.30;;
19255;SDS011;9762;52.490;13.410;2023-04-24T06:52:17;1.30;;;1.30;;
19255;SDS011;9762;52.490;13.410;2023-04-24T06:54:43;1.50;;;1.50;;
19255;SDS011;9762;52.490;13.410;2023-04-24T06:57:09;2.93;;;1.30;;
19255;SDS011;9762;52.490;13.410;2023-04-24T06:59:35;1.60;;;1.50;;
19255;SDS011;9762;52.490;13.410;2023-04-24T07:02:01;1.40;;;1.40;;
19255;SDS011;9762;52.490;13.410;2023-04-24T07:04:27;1.30;;;1.20;;
19255;SDS011;9762;52.490;13.410;2023-04-24T07:06:53;1.53;;;1.30;;
19255;SDS011;9762;52.490;13.410;2023-04-24T07:09:23;1.27;;;1.10;;
19255;SDS011;9762;52.490;13.410;2023-04-24T07:11:50;1.20;;;1.20;;
19255;SDS011;9762;52.490;13.410;2023-04-24T07:14:16;1.30;;;1.20;;
19255;SDS011;9762;52.490;13.410;2023-04-24T07:16:42;1.43;;;1.43;;
19255;SDS011;9762;52.490;13.410;2023-04-24T07:19:08;1.90;;;1.30;;
19255;SDS011;9762;52.490;13.410;2023-04-24T07:21:34;0.80;;;0.80;;
19255;SDS011;9762;52.490;13.410;2023-04-24T07:24:00;1.40;;;0.90;;
19255;SDS011;9762;52.490;13.410;2023-04-24T07:26:26;1.00;;;1.00;;
19255;SDS011;9762;52.490;13.410;2023-04-24T07:28:53;0.97;;;0.90;;
19255;SDS011;9762;52.490;13.410;2023-04-24T07:31:19;1.30;;;1.20;;
19255;SDS011;9762;52.490;13.410;2023-04-24T07:33:46;3.13;;;1.60;;
19255;SDS011;9762;52.490;13.410;2023-04-24T07:36:11;5.00;;;1.23;;
19255;SDS011;9762;52.490;13.410;2023-04-24T07:38:44;1.10;;;1.10;;
19255;SDS011;9762;52.490;13.410;2023-04-24T07:41:13;1.10;;;1.10;;
19255;SDS011;9762;52.490;13.410;2023-04-24T07:43:39;1.10;;;1.10;;
19255;SDS011;9762;52.490;13.410;2023-04-24T07:46:06;1.53;;;1.23;;
19255;SDS011;9762;52.490;13.410;2023-04-24T07:48:32;0.93;;;0.87;;
19255;SDS011;9762;52.490;13.410;2023-04-24T07:50:58;0.90;;;0.90;;
19255;SDS011;9762;52.490;13.410;2023-04-24T07:53:24;1.10;;;1.10;;
19255;SDS011;9762;52.490;13.410;2023-04-24T07:55:49;1.30;;;0.80;;
19255;SDS011;9762;52.490;13.410;2023-04-24T07:58:15;1.47;;;0.90;;
19255;SDS011;9762;52.490;13.410;2023-04-24T08:00:41;1.07;;;1.03;;
19255;SDS011;9762;52.490;13.410;2023-04-24T08:03:06;1.20;;;0.90;;
19255;SDS011;9762;52.490;13.410;2023-04-24T08:05:32;2.00;;;0.60;;
19255;SDS011;9762;52.490;13.410;2023-04-24T08:07:58;0.93;;;0.80;;
19255;SDS011;9762;52.490;13.410;2023-04-24T08:10:24;0.73;;;0.73;;
19255;SDS011;9762;52.490;13.410;2023-04-24T08:12:50;0.97;;;0.97;;
19255;SDS011;9762;52.490;13.410;2023-04-24T08:15:16;0.83;;;0.83;;
19255;SDS011;9762;52.490;13.410;2023-04-24T08:17:42;1.60;;;0.87;;
19255;SDS011;9762;52.490;13.410;2023-04-24T08:20:08;1.40;;;0.70;;
19255;SDS011;9762;52.490;13.410;2023-04-24T08:22:38;5.03;;;1.07;;
19255;SDS011;9762;52.490;13.410;2023-04-24T08:25:05;0.93;;;0.90;;
19255;SDS011;9762;52.490;13.410;2023-04-24T08:27:31;0.93;;;0.93;;
19255;SDS011;9762;52.490;13.410;2023-04-24T08:29:57;1.00;;;1.00;;
19255;SDS011;9762;52.490;13.410;2023-04-24T08:32:23;7.40;;;1.10;;
19255;SDS011;9762;52.490;13.410;2023-04-24T08:34:49;1.43;;;1.33;;
19255;SDS011;9762;52.490;13.410;2023-04-24T08:37:17;2.20;;;0.90;;
19255;SDS011;9762;52.490;13.410;2023-04-24T08:39:43;1.20;;;0.90;;
19255;SDS011;9762;52.490;13.410;2023-04-24T08:42:08;0.80;;;0.80;;
19255;SDS011;9762;52.490;13.410;2023-04-24T08:44:36;0.83;;;0.83;;
19255;SDS011;9762;52.490;13.410;2023-04-24T08:47:02;2.70;;;1.07;;
19255;SDS011;9762;52.490;13.410;2023-04-24T08:49:28;0.90;;;0.90;;
19255;SDS011;9762;52.490;13.410;2023-04-24T08:51:54;0.80;;;0.80;;
19255;SDS011;9762;52.490;13.410;2023-04-24T08:54:20;1.60;;;0.90;;
19255;SDS011;9762;52.490;13.410;2023-04-24T08:56:47;0.60;;;0.60;;
19255;SDS011;9762;52.490;13.410;2023-04-24T08:59:16;0.77;;;0.60;;
19255;SDS011;9762;52.490;13.410;2023-04-24T09:01:42;0.50;;;0.50;;
19255;SDS011;9762;52.490;13.410;2023-04-24T09:04:10;2.53;;;0.93;;
19255;SDS011;9762;52.490;13.410;2023-04-24T09:06:38;0.80;;;0.80;;
19255;SDS011;9762;52.490;13.410;2023-04-24T09:09:04;0.80;;;0.80;;
19255;SDS011;9762;52.490;13.410;2023-04-24T09:11:31;4.10;;;1.00;;
19255;SDS011;9762;52.490;13.410;2023-04-24T09:14:00;3.70;;;0.77;;
19255;SDS011;9762;52.490;13.410;2023-04-24T09:16:26;1.13;;;0.80;;
19255;SDS011;9762;52.490;13.410;2023-04-24T09:18:53;1.23;;;0.77;;
19255;SDS011;9762;52.490;13.410;2023-04-24T09:21:20;3.57;;;1.13;;
19255;SDS011;9762;52.490;13.410;2023-04-24T09:23:57;3.63;;;0.90;;
19255;SDS011;9762;52.490;13.410;2023-04-24T09:26:24;1.23;;;1.00;;
19255;SDS011;9762;52.490;13.410;2023-04-24T09:28:50;2.73;;;0.90;;
19255;SDS011;9762;52.490;13.410;2023-04-24T09:31:16;2.33;;;1.10;;
19255;SDS011;9762;52.490;13.410;2023-04-24T09:33:59;1.67;;;1.00;;
19255;SDS011;9762;52.490;13.410;2023-04-24T09:36:30;0.80;;;0.80;;
19255;SDS011;9762;52.490;13.410;2023-04-24T09:39:16;1.60;;;0.90;;
19255;SDS011;9762;52.490;13.410;2023-04-24T09:41:48;1.63;;;1.00;;
19255;SDS011;9762;52.490;13.410;2023-04-24T09:44:16;1.03;;;0.90;;
19255;SDS011;9762;52.490;13.410;2023-04-24T09:46:49;0.87;;;0.70;;
19255;SDS011;9762;52.490;13.410;2023-04-24T09:49:25;1.50;;;1.13;;
19255;SDS011;9762;52.490;13.410;2023-04-24T09:51:52;9.23;;;1.10;;
19255;SDS011;9762;52.490;13.410;2023-04-24T09:54:31;0.73;;;0.73;;
19255;SDS011;9762;52.490;13.410;2023-04-24T09:56:56;1.20;;;0.93;;
19255;SDS011;9762;52.490;13.410;2023-04-24T09:59:23;0.83;;;0.80;;
19255;SDS011;9762;52.490;13.410;2023-04-24T10:01:48;1.03;;;1.03;;
19255;SDS011;9762;52.490;13.410;2023-04-24T10:04:25;0.80;;;0.80;;
19255;SDS011;9762;52.490;13.410;2023-04-24T10:06:53;1.20;;;0.80;;
19255;SDS011;9762;52.490;13.410;2023-04-24T10:09:21;0.80;;;0.80;;
19255;SDS011;9762;52.490;13.410;2023-04-24T10:11:49;2.47;;;1.00;;
19255;SDS011;9762;52.490;13.410;2023-04-24T10:14:19;2.27;;;1.00;;
19255;SDS011;9762;52.490;13.410;2023-04-24T10:16:46;0.77;;;0.77;;
19255;SDS011;9762;52.490;13.410;2023-04-24T10:19:13;2.60;;;1.07;;
19255;SDS011;9762;52.490;13.410;2023-04-24T10:21:40;2.83;;;0.90;;
19255;SDS011;9762;52.490;13.410;2023-04-24T10:24:08;0.90;;;0.87;;
19255;SDS011;9762;52.490;13.410;2023-04-24T10:26:35;0.90;;;0.90;;
19255;SDS011;9762;52.490;13.410;2023-04-24T10:29:01;1.20;;;1.20;;
19255;SDS011;9762;52.490;13.410;2023-04-24T10:31:28;5.60;;;1.03;;
19255;SDS011;9762;52.490;13.410;2023-04-24T10:33:56;1.63;;;0.80;;
19255;SDS011;9762;52.490;13.410;2023-04-24T10:36:24;1.87;;;1.13;;
19255;SDS011;9762;52.490;13.410;2023-04-24T10:38:53;0.70;;;0.70;;
19255;SDS011;9762;52.490;13.410;2023-04-24T10:41:21;4.43;;;1.00;;
19255;SDS011;9762;52.490;13.410;2023-04-24T10:44:09;3.23;;;0.97;;
19255;SDS011;9762;52.490;13.410;2023-04-24T10:46:37;0.90;;;0.90;;
19255;SDS011;9762;52.490;13.410;2023-04-24T10:49:04;2.80;;;1.10;;
19255;SDS011;9762;52.490;13.410;2023-04-24T10:51:46;2.23;;;0.90;;
19255;SDS011;9762;52.490;13.410;2023-04-24T10:54:28;2.80;;;1.07;;
19255;SDS011;9762;52.490;13.410;2023-04-24T10:59:43;1.00;;;1.00;;
19255;SDS011;9762;52.490;13.410;2023-04-24T11:02:09;0.87;;;0.87;;
19255;SDS011;9762;52.490;13.410;2023-04-24T11:04:34;0.63;;;0.63;;
19255;SDS011;9762;52.490;13.410;2023-04-24T11:07:02;3.60;;;1.17;;
19255;SDS011;9762;52.490;13.410;2023-04-24T11:09:30;0.90;;;0.90;;
19255;SDS011;9762;52.490;13.410;2023-04-24T11:12:11;1.70;;;1.60;;
19255;SDS011;9762;52.490;13.410;2023-04-24T11:17:28;1.40;;;1.00;;
19255;SDS011;9762;52.490;13.410;2023-04-24T11:20:02;2.88;;;0.85;;
19255;SDS011;9762;52.490;13.410;2023-04-24T11:22:32;0.80;;;0.80;;
19255;SDS011;9762;52.490;13.410;2023-04-24T11:25:00;1.17;;;0.93;;
19255;SDS011;9762;52.490;13.410;2023-04-24T11:27:44;2.33;;;0.98;;
19255;SDS011;9762;52.490;13.410;2023-04-24T11:30:16;1.40;;;1.30;;
19255;SDS011;9762;52.490;13.410;2023-04-24T11:32:47;5.53;;;0.90;;
19255;SDS011;9762;52.490;13.410;2023-04-24T11:35:16;1.43;;;0.70;;
19255;SDS011;9762;52.490;13.410;2023-04-24T11:37:46;1.13;;;1.13;;
19255;SDS011;9762;52.490;13.410;2023-04-24T11:40:16;1.03;;;1.03;;
19255;SDS011;9762;52.490;13.410;2023-04-24T11:42:46;1.13;;;1.10;;
19255;SDS011;9762;52.490;13.410;2023-04-24T11:47:39;2.60;;;0.87;;
19255;SDS011;9762;52.490;13.410;2023-04-24T11:50:06;1.03;;;0.93;;
19255;SDS011;9762;52.490;13.410;2023-04-24T11:52:36;2.70;;;0.63;;
19255;SDS011;9762;52.490;13.410;2023-04-24T11:55:03;0.77;;;0.77;;
19255;SDS011;9762;52.490;13.410;2023-04-24T11:57:29;0.82;;;0.82;;
19255;SDS011;9762;52.490;13.410;2023-04-24T12:00:02;1.13;;;1.13;;
19255;SDS011;9762;52.490;13.410;2023-04-24T12:02:30;1.85;;;1.08;;
19255;SDS011;9762;52.490;13.410;2023-04-24T12:04:55;2.65;;;0.93;;
19255;SDS011;9762;52.490;13.410;2023-04-24T12:07:22;8.43;;;1.45;;
19255;SDS011;9762;52.490;13.410;2023-04-24T12:09:54;3.67;;;1.20;;
19255;SDS011;9762;52.490;13.410;2023-04-24T12:12:24;1.45;;;1.20;;
19255;SDS011;9762;52.490;13.410;2023-04-24T12:14:55;1.35;;;1.10;;
19255;SDS011;9762;52.490;13.410;2023-04-24T12:17:26;1.17;;;1.17;;
19255;SDS011;9762;52.490;13.410;2023-04-24T12:19:56;1.10;;;1.10;;
19255;SDS011;9762;52.490;13.410;2023-04-24T12:22:28;1.30;;;1.20;;
19255;SDS011;9762;52.490;13.410;2023-04-24T12:25:03;4.05;;;1.08;;
19255;SDS011;9762;52.490;13.410;2023-04-24T12:27:33;1.13;;;1.02;;
19255;SDS011;9762;52.490;13.410;2023-04-24T12:30:00;2.80;;;1.00;;
19255;SDS011;9762;52.490;13.410;2023-04-24T12:32:27;5.50;;;1.13;;
19255;SDS011;9762;52.490;13.410;2023-04-24T12:34:52;2.80;;;0.90;;
19255;SDS011;9762;52.490;13.410;2023-04-24T12:37:19;1.75;;;0.80;;
19255;SDS011;9762;52.490;13.410;2023-04-24T12:45:13;2.10;;;0.90;;
19255;SDS011;9762;52.490;13.410;2023-04-24T12:47:39;0.93;;;0.93;;
19255;SDS011;9762;52.490;13.410;2023-04-24T12:50:09;2.38;;;1.00;;
19255;SDS011;9762;52.490;13.410;2023-04-24T12:52:37;2.75;;;0.80;;
19255;SDS011;9762;52.490;13.410;2023-04-24T12:55:04;3.47;;;1.00;;
19255;SDS011;9762;52.490;13.410;2023-04-24T12:57:32;0.57;;;0.57;;
19255;SDS011;9762;52.490;13.410;2023-04-24T12:59:58;0.90;;;0.90;;
19255;SDS011;9762;52.490;13.410;2023-04-24T13:02:25;2.97;;;1.20;;
19255;SDS011;9762;52.490;13.410;2023-04-24T13:04:52;2.95;;;0.88;;
19255;SDS011;9762;52.490;13.410;2023-04-24T13:07:18;1.00;;;1.00;;
19255;SDS011;9762;52.490;13.410;2023-04-24T13:09:45;2.65;;;0.70;;
19255;SDS011;9762;52.490;13.410;2023-04-24T13:12:11;1.48;;;0.75;;
19255;SDS011;9762;52.490;13.410;2023-04-24T13:14:37;1.25;;;0.88;;
19255;SDS011;9762;52.490;13.410;2023-04-24T13:17:03;0.90;;;0.90;;
19255;SDS011;9762;52.490;13.410;2023-04-24T13:19:29;1.58;;;0.90;;
19255;SDS011;9762;52.490;13.410;2023-04-24T13:22:00;2.92;;;0.90;;
19255;SDS011;9762;52.490;13.410;2023-04-24T13:24:25;0.90;;;0.90;;
19255;SDS011;9762;52.490;13.410;2023-04-24T13:26:54;0.90;;;0.90;;
19255;SDS011;9762;52.490;13.410;2023-04-24T13:29:21;2.28;;;1.00;;
19255;SDS011;9762;52.490;13.410;2023-04-24T13:31:49;0.80;;;0.80;;
19255;SDS011;9762;52.490;13.410;2023-04-24T13:34:16;0.63;;;0.63;;
19255;SDS011;9762;52.490;13.410;2023-04-24T13:36:45;2.75;;;0.90;;
19255;SDS011;9762;52.490;13.410;2023-04-24T13:39:11;4.07;;;0.90;;
19255;SDS011;9762;52.490;13.410;2023-04-24T13:41:37;1.33;;;1.02;;
19255;SDS011;9762;52.490;13.410;2023-04-24T13:44:03;1.45;;;1.20;;
19255;SDS011;9762;52.490;13.410;2023-04-24T13:46:29;1.23;;;0.77;;
19255;SDS011;9762;52.490;13.410;2023-04-24T13:48:55;0.93;;;0.80;;
19255;SDS011;9762;52.490;13.410;2023-04-24T13:51:23;0.75;;;0.75;;
19255;SDS011;9762;52.490;13.410;2023-04-24T13:53:52;0.90;;;0.90;;
19255;SDS011;9762;52.490;13.410;2023-04-24T13:56:18;0.93;;;0.93;;
19255;SDS011;9762;52.490;13.410;2023-04-24T13:58:44;2.58;;;0.90;;
19255;SDS011;9762;52.490;13.410;2023-04-24T14:01:09;3.20;;;1.00;;
19255;SDS011;9762;52.490;13.410;2023-04-24T14:03:36;2.53;;;0.98;;
19255;SDS011;9762;52.490;13.410;2023-04-24T14:06:03;0.93;;;0.93;;
19255;SDS011;9762;52.490;13.410;2023-04-24T14:08:28;0.98;;;0.98;;
19255;SDS011;9762;52.490;13.410;2023-04-24T14:10:54;2.15;;;0.70;;
19255;SDS011;9762;52.490;13.410;2023-04-24T14:13:20;0.88;;;0.88;;
19255;SDS011;9762;52.490;13.410;2023-04-24T14:15:46;2.90;;;1.00;;
19255;SDS011;9762;52.490;13.410;2023-04-24T14:18:11;4.32;;;0.85;;
19255;SDS011;9762;52.490;13.410;2023-04-24T14:20:37;1.60;;;1.08;;
19255;SDS011;9762;52.490;13.410;2023-04-24T14:23:03;2.10;;;1.20;;
19255;SDS011;9762;52.490;13.410;2023-04-24T14:25:29;1.48;;;1.02;;
19255;SDS011;9762;52.490;13.410;2023-04-24T14:27:55;1.38;;;0.95;;
19255;SDS011;9762;52.490;13.410;2023-04-24T14:30:20;1.05;;;1.05;;
19255;SDS011;9762;52.490;13.410;2023-04-24T14:32:46;3.03;;;0.80;;
19255;SDS011;9762;52.490;13.410;2023-04-24T14:35:12;1.00;;;1.00;;
19255;SDS011;9762;52.490;13.410;2023-04-24T14:37:38;1.08;;;0.85;;
19255;SDS011;9762;52.490;13.410;2023-04-24T14:40:06;1.50;;;1.40;;
19255;SDS011;9762;52.490;13.410;2023-04-24T14:42:32;1.20;;;1.20;;
19255;SDS011;9762;52.490;13.410;2023-04-24T14:44:59;3.47;;;1.17;;
19255;SDS011;9762;52.490;13.410;2023-04-24T14:47:24;1.03;;;1.03;;
19255;SDS011;9762;52.490;13.410;2023-04-24T14:49:50;1.03;;;1.03;;
19255;SDS011;9762;52.490;13.410;2023-04-24T14:52:16;1.23;;;1.23;;
19255;SDS011;9762;52.490;13.410;2023-04-24T14:54:42;1.07;;;1.07;;
19255;SDS011;9762;52.490;13.410;2023-04-24T14:57:08;1.60;;;1.10;;
19255;SDS011;9762;52.490;13.410;2023-04-24T14:59:34;0.87;;;0.80;;